Latest Weather Observations for Lockhart River

IDQ60801

Issued at 6:35 pm EST Wednesday 1 October 2014 (issued every 30 minutes, with the page automatically refreshed every 10 minutes)

About weather observations | Map of weather stations | Latest weather observations for QLD | Other Formats
Station Details ID: 028008 Name: LOCKHART RIVER AIRPORT Lat: -12.79 Lon: 143.30 Height: 18.5 m
Data from the previous 72 hours. | See also: Recent months at Lockhart River
Date/Time
EST
Temp
°C
App
Temp
°C
Dew
Point
Rel
Hum
%
Delta-T
°C
Wind Press
QNH
hPa
Press
MSL
hPa
Rain
since 9 am
mm
Dir
 
Spd
km/h
Gust
km/h
Spd
kts
Gust
kts
01/06:30pm 24.6 23.8 18.1 67 4.1 ESE 19 28 10 15 1013.4 - 0.0
01/06:00pm 24.9 23.4 17.6 64 4.6 ESE 22 32 12 17 1013.0 1012.9 0.0
01/05:30pm 25.3 23.8 17.7 62 4.8 ESE 22 32 12 17 1012.6 - 0.0
01/05:00pm 25.9 24.7 17.5 59 5.3 ESE 20 35 11 19 1012.3 - 0.0
01/04:30pm 27.2 25.5 18.2 58 5.7 ESE 24 35 13 19 1012.1 - 0.0
01/04:00pm 26.9 24.3 17.7 57 5.8 ESE 28 39 15 21 1012.0 - 0.0
01/03:30pm 27.3 24.1 16.3 51 6.8 ESE 28 39 15 21 1012.0 - 0.0
01/03:00pm 27.6 24.6 16.9 52 6.7 ESE 28 41 15 22 1012.0 1011.9 0.0
01/02:33pm 27.9 25.3 17.7 53 6.5 ESE 28 46 15 25 1012.3 - 0.0
01/02:30pm 27.6 24.5 17.5 54 6.4 ESE 30 41 16 22 1012.3 - 0.0
01/02:00pm 27.4 25.0 17.3 54 6.3 E 26 37 14 20 1012.6 - 0.0
01/01:30pm 28.2 26.3 17.7 53 6.6 E 24 37 13 20 1012.9 - 0.0
01/01:00pm 27.9 25.9 17.4 52 6.6 E 24 37 13 20 1013.4 - 0.0
01/12:30pm 28.7 27.2 17.6 51 7.0 ESE 22 33 12 18 1014.0 - 0.0
01/12:00pm 27.9 25.3 16.8 50 6.9 ESE 26 35 14 19 1014.4 1014.3 0.0
01/11:30am 28.5 26.8 18.0 53 6.7 ESE 24 35 13 19 1014.9 - 0.0
01/11:00am 27.4 24.7 15.7 48 7.2 ESE 24 41 13 22 1015.4 - 0.0
01/10:30am 27.3 25.3 17.5 55 6.2 ESE 24 35 13 19 1015.7 - 0.0
01/10:00am 27.3 25.2 17.2 54 6.3 E 24 41 13 22 1015.8 - 0.0
01/09:30am 26.5 24.1 17.3 57 5.8 ESE 26 39 14 21 1015.9 - 0.0
01/09:00am 26.4 25.1 17.2 57 5.7 E 20 32 11 17 1016.0 1015.9 0.2
01/08:30am 26.4 25.0 16.9 56 5.9 E 20 35 11 19 1015.9 - 0.2
01/08:00am 25.8 24.7 17.4 59 5.3 ESE 19 28 10 15 1015.4 - 0.2
01/07:30am 24.5 24.5 18.9 71 3.6 ESE 17 24 9 13 1015.1 - 0.2
01/07:23am 23.5 24.3 19.0 76 2.9 ESE 13 20 7 11 1014.9 - 0.2
01/07:00am 18.4 19.7 17.2 93 0.7 WNW 6 7 3 4 1014.8 - 0.2
01/06:30am 17.7 19.9 16.6 93 0.7 CALM 0 0 0 0 1014.5 - 0.2
01/06:00am 17.5 19.4 15.8 90 1.0 SE 0 0 0 0 1014.3 1014.2 0.2
01/05:30am 18.1 20.3 16.4 90 1.0 SE 0 0 0 0 1014.0 - 0.2
01/05:00am 19.3 21.6 16.7 85 1.6 CALM 0 0 0 0 1013.8 - 0.2
01/04:30am 20.5 21.2 17.1 81 2.1 S 9 11 5 6 1013.7 - 0.2
01/04:00am 22.0 22.8 17.4 75 2.8 SE 9 13 5 7 1013.5 - 0.2
01/03:30am 22.5 22.3 17.6 74 3.0 SE 15 19 8 10 1013.3 - 0.2
01/03:00am 23.0 22.9 17.9 73 3.2 ESE 15 20 8 11 1013.4 1013.3 0.2
01/02:30am 23.2 22.1 17.4 70 3.6 ESE 19 32 10 17 1013.4 - 0.2
01/02:00am 23.5 22.6 17.7 70 3.6 ESE 19 30 10 16 1013.8 - 0.2
01/01:30am 23.5 22.7 17.9 71 3.5 ESE 19 30 10 16 1014.2 - 0.2
01/01:00am 23.3 22.5 18.0 72 3.3 ESE 19 32 10 17 1014.5 - 0.2
01/12:30am 23.4 23.0 18.1 72 3.3 ESE 17 26 9 14 1014.9 - 0.2
01/12:00am 23.5 22.8 18.2 72 3.3 ESE 19 33 10 18 1015.3 1015.2 0.2
 
Date/Time
EST
Temp
°C
App
Temp
°C
Dew
Point
Rel
Hum
%
Delta-T
°C
Wind Press
QNH
hPa
Press
MSL
hPa
Rain
since 9 am
mm
Dir
 
Spd
km/h
Gust
km/h
Spd
kts
Gust
kts
30/11:30pm 23.6 22.9 18.3 72 3.3 ESE 19 28 10 15 1015.6 - 0.2
30/11:00pm 23.7 22.8 18.1 71 3.5 ESE 20 33 11 18 1015.8 - 0.2
30/10:30pm 23.7 22.9 17.9 70 3.6 ESE 19 37 10 20 1016.0 - 0.2
30/10:00pm 21.8 22.6 17.4 76 2.7 S 9 15 5 8 1016.0 - 0.2
30/09:30pm 22.9 23.7 17.4 71 3.4 S 9 13 5 7 1016.0 - 0.2
30/09:00pm 24.1 23.5 17.6 67 4.0 ESE 17 24 9 13 1015.8 1015.7 0.2
30/08:30pm 24.1 23.1 17.6 67 4.1 ESE 19 28 10 15 1015.5 - 0.2
30/08:00pm 24.1 24.3 17.6 67 4.1 ESE 13 22 7 12 1015.2 - 0.2
30/07:30pm 24.2 23.8 17.2 65 4.3 ESE 15 22 8 12 1014.9 - 0.2
30/07:00pm 24.2 22.8 16.5 62 4.7 SE 19 24 10 13 1014.6 - 0.2
30/06:30pm 24.4 23.3 16.4 61 4.9 ESE 17 26 9 14 1014.3 - 0.2
30/06:00pm 24.7 23.5 16.2 59 5.2 ESE 17 26 9 14 1014.1 1014.0 0.2
30/05:30pm 25.3 23.8 16.7 59 5.3 ESE 20 28 11 15 1013.9 - 0.2
30/05:00pm 25.7 24.5 17.4 60 5.2 ESE 20 30 11 16 1013.6 - 0.2
30/04:30pm 26.0 23.6 16.5 55 5.9 ESE 24 35 13 19 1013.4 - 0.2
30/04:00pm 26.6 23.5 16.5 54 6.2 ESE 28 37 15 20 1013.3 - 0.2
30/03:30pm 26.9 23.8 16.5 53 6.4 ESE 28 37 15 20 1013.4 - 0.2
30/03:00pm 26.9 23.4 15.6 50 6.9 ESE 28 44 15 24 1013.5 1013.4 0.2
30/02:30pm 27.1 23.8 17.0 54 6.3 ESE 30 44 16 24 1013.7 - 0.2
30/02:04pm 27.8 25.4 18.2 56 6.1 ESE 28 48 15 26 1013.6 - 0.2
30/02:00pm 27.1 24.6 18.1 58 5.7 ESE 28 39 15 21 1013.6 - 0.2
30/01:30pm 27.2 24.3 17.1 54 6.3 ESE 28 39 15 21 1014.0 - 0.2
30/01:00pm 28.1 25.7 18.2 55 6.3 ESE 28 41 15 22 1014.4 - 0.2
30/12:30pm 28.7 26.8 17.6 51 7.0 ESE 24 33 13 18 1014.8 - 0.2
30/12:00pm 27.3 25.7 19.1 61 5.3 ESE 26 39 14 21 1015.2 1015.1 0.2
30/11:30am 25.3 26.1 21.4 79 2.6 ESE 19 26 10 14 1015.8 - 0.2
30/11:00am 27.0 24.9 18.0 58 5.7 ESE 26 39 14 21 1016.0 - 0.0
30/10:30am 28.4 25.9 18.8 56 6.2 ESE 30 43 16 23 1016.2 - 0.0
30/10:00am 27.3 25.2 18.0 56 5.9 ESE 26 39 14 21 1016.1 - 0.0
30/09:30am 26.9 25.3 17.4 56 6.0 E 22 33 12 18 1016.2 - 0.0
30/09:00am 26.7 25.3 18.0 59 5.5 ESE 22 39 12 21 1016.3 1016.2 0.0
30/08:30am 25.9 24.3 18.3 63 4.8 ESE 24 37 13 20 1016.2 - 0.0
30/08:00am 25.5 23.1 18.2 64 4.6 ESE 28 35 15 19 1015.9 - 0.0
30/07:30am 25.0 23.9 18.7 68 4.0 ESE 22 33 12 18 1015.3 - 0.0
30/07:00am 24.0 22.9 18.6 72 3.4 ESE 22 32 12 17 1015.0 - 0.0
30/06:30am 22.5 22.8 17.0 71 3.4 SE 11 17 6 9 1014.6 - 0.0
30/06:00am 23.0 22.8 17.5 71 3.4 ESE 15 20 8 11 1014.2 1014.1 0.0
30/05:30am 23.4 23.1 17.4 69 3.7 ESE 15 22 8 12 1014.0 - 0.0
30/05:00am 23.5 23.4 17.9 71 3.5 ESE 15 24 8 13 1013.7 - 0.0
30/04:30am 23.6 23.3 18.3 72 3.3 ESE 17 24 9 13 1013.5 - 0.0
30/04:00am 23.1 23.6 18.4 75 3.0 SE 13 20 7 11 1013.4 - 0.0
30/03:30am 22.5 23.5 18.7 79 2.4 SE 11 17 6 9 1013.2 - 0.0
30/03:00am 22.9 23.3 18.2 75 2.9 SE 13 17 7 9 1013.3 1013.2 0.0
30/02:30am 23.5 23.8 17.9 71 3.5 ESE 13 24 7 13 1013.6 - 0.0
30/02:00am 23.6 23.1 17.8 70 3.6 ESE 17 30 9 16 1013.8 - 0.0
30/01:30am 23.7 22.9 17.9 70 3.6 ESE 19 30 10 16 1014.1 - 0.0
30/01:00am 23.8 23.0 18.0 70 3.6 ESE 19 30 10 16 1014.4 - 0.0
30/12:30am 23.9 22.7 17.6 68 3.9 ESE 20 28 11 15 1014.8 - 0.0
30/12:00am 23.8 23.6 17.5 68 3.9 ESE 15 22 8 12 1015.0 1014.9 0.0
 
Date/Time
EST
Temp
°C
App
Temp
°C
Dew
Point
Rel
Hum
%
Delta-T
°C
Wind Press
QNH
hPa
Press
MSL
hPa
Rain
since 9 am
mm
Dir
 
Spd
km/h
Gust
km/h
Spd
kts
Gust
kts
29/11:30pm 23.9 22.9 17.6 68 3.9 ESE 19 28 10 15 1015.3 - 0.0
29/11:00pm 24.0 23.0 17.5 67 4.0 ESE 19 33 10 18 1015.5 - 0.0
29/10:30pm 24.0 22.9 17.3 66 4.2 ESE 19 30 10 16 1015.5 - 0.0
29/10:00pm 24.1 22.8 16.9 64 4.4 ESE 19 28 10 15 1015.5 - 0.0
29/09:30pm 24.1 22.6 16.4 62 4.7 ESE 19 28 10 15 1015.6 - 0.0
29/09:00pm 24.3 22.0 16.6 62 4.7 ESE 24 35 13 19 1015.4 1015.3 0.0
29/08:30pm 24.3 23.0 17.3 65 4.3 ESE 20 32 11 17 1015.2 - 0.0
29/08:00pm 24.4 22.8 17.4 65 4.4 ESE 22 33 12 18 1015.0 - 0.0
29/07:30pm 24.2 24.0 17.7 67 4.1 ESE 15 22 8 12 1014.6 - 0.0
29/07:00pm 24.4 22.9 17.6 66 4.2 ESE 22 32 12 17 1014.1 - 0.0
29/06:30pm 24.5 23.3 17.5 65 4.4 ESE 20 35 11 19 1013.7 - 0.0
29/06:00pm 24.9 23.8 17.4 63 4.7 ESE 19 32 10 17 1013.6 1013.5 0.0
29/05:30pm 25.5 23.6 16.6 58 5.5 ESE 22 32 12 17 1013.2 - 0.0
29/05:00pm 26.7 24.0 15.7 51 6.7 ESE 24 37 13 20 1012.8 - 0.0
29/04:30pm 26.9 24.5 16.5 53 6.4 ESE 24 37 13 20 1012.7 - 0.0
29/04:00pm 27.5 24.5 15.8 48 7.2 ESE 26 35 14 19 1012.6 - 0.0
29/03:56pm 27.8 24.4 15.8 48 7.4 ESE 28 46 15 25 1012.6 - 0.0
29/03:30pm 27.1 23.0 14.8 47 7.4 ESE 30 44 16 24 1012.6 - 0.0
29/03:20pm 27.2 23.7 15.6 49 7.1 ESE 28 46 15 25 1012.6 - 0.0
29/03:00pm 27.8 24.6 16.4 50 7.1 E 28 41 15 22 1012.7 1012.6 0.0
29/02:30pm 27.0 22.8 15.7 50 6.9 ESE 32 43 17 23 1013.0 - 0.0
29/02:07pm 27.0 23.6 15.7 50 6.9 ESE 28 46 15 25 1013.3 - 0.0
29/02:00pm 28.6 26.2 16.5 48 7.5 E 24 46 13 25 1013.4 - 0.0
29/01:30pm 28.4 25.5 17.0 50 7.1 ESE 28 44 15 24 1013.8 - 0.0
29/01:00pm 27.4 24.3 17.6 55 6.2 ESE 30 44 16 24 1014.2 - 0.0
29/12:34pm 28.4 26.1 18.5 55 6.3 ESE 28 46 15 25 1014.4 - 0.0
29/12:30pm 27.3 24.0 16.9 53 6.5 ESE 30 46 16 25 1014.5 - 0.0
29/12:00pm 28.2 25.8 17.4 52 6.8 ESE 26 41 14 22 1015.0 1014.9 0.0
29/11:30am 27.5 24.1 15.8 48 7.2 E 28 48 15 26 1015.3 - 0.0
29/11:16am 28.2 25.1 16.5 49 7.3 ESE 28 46 15 25 1015.5 - 0.0
29/11:00am 27.6 25.7 18.6 58 5.8 ESE 26 43 14 23 1015.7 - 0.0
29/10:30am 25.6 22.9 17.5 61 5.1 ESE 28 43 15 23 1015.9 - 0.0
29/10:00am 26.8 23.6 16.4 53 6.4 ESE 28 41 15 22 1016.0 - 0.0
29/09:30am 26.9 24.3 15.9 51 6.7 E 24 48 13 26 1015.9 - 0.0
29/09:25am 27.2 23.7 15.6 49 7.1 ESE 28 48 15 26 1015.8 - 0.0
29/09:00am 26.7 24.4 17.5 57 5.8 E 26 44 14 24 1015.8 1015.7 0.0
29/08:30am 26.6 24.1 17.1 56 5.9 E 26 35 14 19 1015.7 - 0.0
29/08:00am 25.1 23.1 17.3 62 4.9 ESE 24 35 13 19 1015.4 - 0.0
29/07:30am 24.9 23.3 16.6 60 5.1 E 20 35 11 19 1015.0 - 0.0
29/07:00am 24.8 21.9 15.1 54 5.8 ESE 24 39 13 21 1014.7 - 0.0
29/06:30am 24.1 22.2 15.1 57 5.4 ESE 19 30 10 16 1014.3 - 0.0
29/06:00am 24.4 22.1 15.6 58 5.3 E 22 33 12 18 1013.9 1013.8 0.0
29/05:30am 23.9 22.4 16.7 64 4.4 ESE 20 35 11 19 1013.7 - 0.0
29/05:00am 23.9 22.4 16.4 63 4.6 ESE 19 32 10 17 1013.3 - 0.0
29/04:30am 24.0 21.9 15.2 58 5.3 ESE 20 35 11 19 1013.1 - 0.0
29/04:00am 23.7 22.1 16.5 64 4.4 ESE 20 30 11 16 1012.9 - 0.0
29/03:30am 23.8 22.1 16.3 63 4.6 ESE 20 33 11 18 1012.8 - 0.0
29/03:00am 23.8 21.5 15.6 60 4.9 ESE 22 37 12 20 1012.9 1012.8 0.0
29/02:30am 23.8 22.1 16.3 63 4.6 ESE 20 35 11 19 1013.2 - 0.0
29/02:00am 23.9 22.2 16.2 62 4.7 ESE 20 32 11 17 1013.6 - 0.0
29/01:30am 23.9 21.8 16.2 62 4.7 ESE 22 30 12 16 1014.0 - 0.0
29/01:00am 23.9 22.0 15.7 60 5.0 ESE 20 32 11 17 1014.4 - 0.0
29/12:30am 24.1 22.5 16.4 62 4.7 ESE 20 30 11 16 1014.8 - 0.0
29/12:00am 24.1 22.7 16.9 64 4.4 ESE 20 32 11 17 1014.9 1014.8 0.0
 
Date/Time
EST
Temp
°C
App
Temp
°C
Dew
Point
Rel
Hum
%
Delta-T
°C
Wind Press
QNH
hPa
Press
MSL
hPa
Rain
since 9 am
mm
Dir
 
Spd
km/h
Gust
km/h
Spd
kts
Gust
kts
28/11:30pm 24.2 22.3 16.7 63 4.6 ESE 22 32 12 17 1015.0 - 0.0
28/11:00pm 24.2 22.8 17.0 64 4.4 ESE 20 30 11 16 1015.3 - 0.0
28/10:30pm 24.2 23.0 17.4 65 4.2 ESE 20 28 11 15 1015.3 - 0.0
28/10:00pm 24.3 23.4 17.8 67 4.1 ESE 19 28 10 15 1015.3 - 0.0
28/09:30pm 24.3 23.3 17.5 66 4.2 ESE 19 28 10 15 1015.1 - 0.0
28/09:00pm 24.4 23.2 17.6 66 4.2 ESE 20 30 11 16 1015.0 1014.9 0.0
28/08:30pm 24.4 24.3 17.9 67 4.1 SE 15 19 8 10 1014.6 - 0.0
28/08:00pm 24.5 23.9 17.5 65 4.4 ESE 17 26 9 14 1014.4 - 0.0
28/07:30pm 24.7 24.2 17.7 65 4.4 ESE 17 24 9 13 1014.3 - 0.0
28/07:00pm 25.0 24.3 18.2 66 4.3 ESE 19 28 10 15 1014.1 - 0.0

Other Formats:

Comma delimited format used in spreadsheet applications
http://www.bom.gov.au/fwo/IDQ60801/IDQ60801.94186.axf

JavaScript Object Notation format (JSON) in row-major order
http://www.bom.gov.au/fwo/IDQ60801/IDQ60801.94186.json